MENDENHALL VALLEY AK US NWS current weather conditions

sailwx.info

Wind from 110 at 2 knots gusting 6

Air temperature 2.0° C
Dewpoint 0.3° C

Last reported at 2020-Oct-30 16:03 UTC.
Time now 2020-Oct-30 16:48 UTC

Location: N 58°22' W 134°36'.
View on Google Maps.

See reports from other nearby stations

  
Tides and Currents Weather Stations Pressure Air Temp Water Temp Dewpoint Dewpoint Depression Visibility Wind Speed Wind Dir Waves Ship Positions
date/time (UTC)wind fromknots sea level pressurealtimeterstation pressurevisibilityair tempwater tempwave heightnotes
2020-Oct-30 16:03 110 2 gusting 6 2.0
2020-Oct-30 15:53 140 4 gusting 8 2.5
2020-Oct-30 15:43 150 4 gusting 8 2.6
2020-Oct-30 15:33 140 2 gusting 6 2.6
2020-Oct-30 15:23 150 1 gusting 6 2.2
2020-Oct-30 15:13 120 4 gusting 8 2.0
2020-Oct-30 15:03 120 2 gusting 7 1.8
2020-Oct-30 14:54 360 1 gusting 4 1.5
2020-Oct-30 14:44 040 0 gusting 4 1.6
2020-Oct-30 14:33 090 0 gusting 2 1.3
2020-Oct-30 14:23 350 1 gusting 2 1.1
2020-Oct-30 14:13 100 1 gusting 4 1.1
2020-Oct-30 14:03 340 1 gusting 4 1.0
2020-Oct-30 13:53 160 0 gusting 2 1.2
2020-Oct-30 13:43 130 0 gusting 1 1.1
2020-Oct-30 13:33 060 0 gusting 1 1.1
2020-Oct-30 13:23 090 0 gusting 4 0.9
2020-Oct-30 13:14 130 2 gusting 4 0.9
2020-Oct-30 13:03 140 1 gusting 4 1.0
2020-Oct-30 12:54 130 1 gusting 4 0.9
2020-Oct-30 12:43 120 1 gusting 2 0.9
2020-Oct-30 12:33 070 1 gusting 2 0.8
2020-Oct-30 12:23 070 1 gusting 4 0.8
2020-Oct-30 12:13 100 1 gusting 4 0.8
2020-Oct-30 12:03 100 0 gusting 2 0.8
2020-Oct-30 11:53 080 0 gusting 2 0.8
2020-Oct-30 11:43 070 1 gusting 2 0.6
2020-Oct-30 11:33 090 0 gusting 2 0.6
2020-Oct-30 11:23 080 0 gusting 1 0.6
2020-Oct-30 11:13 070 0 gusting 1 0.5
2020-Oct-30 11:03 040 0 gusting 1 0.7
2020-Oct-30 10:53 030 0 gusting 1 0.7
2020-Oct-30 10:43 090 0 gusting 2 0.7
2020-Oct-30 10:33 120 2 gusting 4 0.6
2020-Oct-30 10:23 130 2 gusting 4 0.4
2020-Oct-30 10:13 130 4 gusting 6 0.3
2020-Oct-30 10:03 150 2 gusting 5 0.4
2020-Oct-30 09:53 110 1 gusting 6 0.5
2020-Oct-30 09:43 090 4 gusting 6 0.4
2020-Oct-30 09:33 100 4 gusting 6 0.5
2020-Oct-30 09:23 090 2 gusting 5 0.6
2020-Oct-30 09:13 090 2 gusting 5 0.4
2020-Oct-30 09:03 080 2 gusting 5 0.3
2020-Oct-30 08:53 080 1 gusting 4 -0.0
2020-Oct-30 08:43 070 1 gusting 4 -0.0
2020-Oct-30 08:33 100 1 gusting 4 -0.2
2020-Oct-30 08:23 090 1 gusting 2 -0.3
2020-Oct-30 08:13 060 1 gusting 2 -0.4
2020-Oct-30 08:05 100 1 gusting 2 -0.5
2020-Oct-30 07:53 090 0 gusting 1 -0.5
2020-Oct-30 07:43 070 1 gusting 1 -0.5
2020-Oct-30 07:34 100 1 gusting 2 -0.4
2020-Oct-30 07:23 050 1 gusting 1 -0.3
2020-Oct-30 07:13 040 0 gusting 1 -0.2
2020-Oct-30 07:03 -0.0
2020-Oct-30 06:53 360 0 gusting 1 -0.0
2020-Oct-30 06:43 010 0 gusting 1 -0.0
2020-Oct-30 06:33 050 0 gusting 1 -0.0
2020-Oct-30 06:23 -0.1
2020-Oct-30 06:13 -0.1
2020-Oct-30 06:03 0.1
2020-Oct-30 05:53 050 0 gusting 1 0.2
2020-Oct-30 05:43 0.4
2020-Oct-30 05:33 090 0 gusting 1 0.7
2020-Oct-30 05:23 0.9
2020-Oct-30 05:13 100 0 gusting 2 1.0
2020-Oct-30 05:03 120 0 gusting 2 1.3
2020-Oct-30 04:53 1.5
2020-Oct-30 04:43 1.6
2020-Oct-30 04:33 1.7
2020-Oct-30 04:23 080 0 gusting 1 1.9
2020-Oct-30 04:13 2.1
2020-Oct-30 04:03 090 0 gusting 2 2.2
2020-Oct-30 03:53 110 0 gusting 2 2.4
2020-Oct-30 03:43 120 1 gusting 2 2.5
2020-Oct-30 03:33 2.6
2020-Oct-30 03:24 110 0 gusting 1 2.6
2020-Oct-30 03:13 090 0 gusting 1 2.9
2020-Oct-30 03:03 3.1
2020-Oct-30 02:54 3.1
2020-Oct-30 02:44 020 0 gusting 1 3.1
2020-Oct-30 02:33 200 0 gusting 1 3.5
2020-Oct-30 02:23 3.7
2020-Oct-30 02:13 4.0
2020-Oct-30 02:04 040 0 gusting 1 4.2
2020-Oct-30 01:53 070 1 gusting 4 4.4
2020-Oct-30 01:43 080 2 gusting 5 4.6
2020-Oct-30 01:33 080 1 gusting 4 4.9
2020-Oct-30 01:23 080 2 gusting 5 5.1
2020-Oct-30 01:13 070 1 gusting 4 5.6
2020-Oct-30 01:03 5.8
2020-Oct-30 00:53 5.9
2020-Oct-30 00:43 5.9
2020-Oct-30 00:34 210 1 gusting 2 5.9
2020-Oct-30 00:23 200 1 gusting 4 6.2
2020-Oct-30 00:13 6.4
2020-Oct-29 23:54 6.2
2020-Oct-29 23:43 260 0 gusting 1 6.3
2020-Oct-29 23:33 6.3
2020-Oct-29 23:23 070 0 gusting 2 6.1
2020-Oct-29 23:13 090 1 gusting 4 6.0
2020-Oct-29 23:03 100 1 gusting 5 6.0
2020-Oct-29 22:53 100 2 gusting 6 6.0
2020-Oct-29 22:43 120 2 gusting 6 6.3
2020-Oct-29 22:33 190 2 gusting 5 6.4
2020-Oct-29 22:23 170 1 gusting 5 6.3
2020-Oct-29 22:13 100 1 gusting 4 5.9
2020-Oct-29 22:03 110 2 gusting 5 5.7
2020-Oct-29 21:53 110 4 gusting 6 5.5
2020-Oct-29 21:43 110 1 gusting 5 5.4
2020-Oct-29 21:33 100 2 gusting 5 5.3
2020-Oct-29 21:23 110 4 gusting 6 5.1
2020-Oct-29 21:13 110 5 gusting 8 5.1
2020-Oct-29 21:03 110 4 gusting 6 5.2
2020-Oct-29 20:53 120 4 gusting 6 5.4
2020-Oct-29 20:43 130 2 gusting 6 5.5
2020-Oct-29 20:33 150 2 gusting 6 5.4
2020-Oct-29 20:23 150 4 gusting 8 5.3
2020-Oct-29 20:13 170 2 gusting 7 5.3
2020-Oct-29 20:03 190 6 gusting 12 5.3
2020-Oct-29 19:53 180 5 gusting 9 5.3
2020-Oct-29 19:43 180 5 gusting 12 5.4
2020-Oct-29 19:33 180 4 gusting 8 5.5
2020-Oct-29 19:23 180 4 gusting 9 5.5
2020-Oct-29 19:13 160 5 gusting 11 5.4
2020-Oct-29 19:03 160 5 gusting 9 5.4
2020-Oct-29 18:53 170 4 gusting 8 5.4
2020-Oct-29 18:43 180 4 gusting 8 5.3
2020-Oct-29 18:33 170 5 gusting 9 5.2
2020-Oct-29 18:23 170 5 gusting 9 5.2
2020-Oct-29 18:13 160 5 gusting 7 5.1
2020-Oct-29 18:03 160 6 gusting 11 5.1
2020-Oct-29 17:54 180 4 gusting 9 5.1
2020-Oct-29 17:43 170 4 gusting 7 4.9
2020-Oct-29 17:33 150 4 gusting 7 4.8
2020-Oct-29 17:24 160 5 gusting 8 4.9
2020-Oct-29 17:13 160 2 gusting 5 4.9
2020-Oct-29 17:03 160 4 gusting 7 4.8
2020-Oct-29 16:53 160 4 gusting 8 4.7
2020-Oct-29 16:43 160 4 gusting 8 4.7
2020-Oct-29 16:33 150 2 gusting 7 4.3
2020-Oct-29 16:23 110 2 gusting 5 4.1
2020-Oct-29 16:13 110 2 gusting 6 4.2
2020-Oct-29 16:03 140 4 gusting 7 4.5
2020-Oct-29 15:54 150 4 gusting 6 4.6
2020-Oct-29 15:43 160 4 gusting 8 4.6
2020-Oct-29 15:33 160 4 gusting 7 4.6
2020-Oct-29 15:23 170 5 gusting 8 4.8
2020-Oct-29 15:13 170 4 gusting 8 4.7
2020-Oct-29 15:03 150 2 gusting 6 4.4
2020-Oct-29 14:53 120 2 gusting 6 4.2
2020-Oct-29 14:43 110 4 gusting 6 4.2
2020-Oct-29 14:33 110 4 gusting 6 4.4
2020-Oct-29 14:23 150 2 gusting 6 4.6
2020-Oct-29 14:13 160 4 gusting 8 4.7
2020-Oct-29 14:03 170 4 gusting 8 4.8
2020-Oct-29 13:53 170 5 gusting 9 4.8
2020-Oct-29 13:43 170 5 gusting 11 4.9
2020-Oct-29 13:33 160 6 gusting 9 4.8
2020-Oct-29 13:23 170 5 gusting 11 4.9
2020-Oct-29 13:14 180 5 gusting 11 5.0
2020-Oct-29 13:03 180 4 gusting 13 5.0
2020-Oct-29 12:53 180 5 gusting 9 5.0
2020-Oct-29 12:43 180 5 gusting 9 5.0
2020-Oct-29 12:33 180 6 gusting 12 5.0
2020-Oct-29 12:23 180 5 gusting 9 5.0
2020-Oct-29 12:13 180 5 gusting 11 5.0
2020-Oct-29 12:03 170 4 gusting 8 5.0
2020-Oct-29 11:53 170 6 gusting 12 5.0
2020-Oct-29 11:43 180 5 gusting 11 5.1
2020-Oct-29 11:33 180 5 gusting 9 5.0
2020-Oct-29 11:23 170 5 gusting 9 5.1
2020-Oct-29 11:13 160 6 gusting 13 5.1
2020-Oct-29 11:03 170 5 gusting 11 5.1
2020-Oct-29 10:53 170 5 gusting 9 5.0
2020-Oct-29 10:43 170 6 gusting 11 5.0
2020-Oct-29 10:33 180 5 gusting 8 5.1
2020-Oct-29 10:23 180 6 gusting 9 5.2
2020-Oct-29 10:13 180 4 gusting 9 5.2
2020-Oct-29 10:03 180 6 gusting 11 5.1
2020-Oct-29 09:53 170 6 gusting 12 5.1
2020-Oct-29 09:43 170 5 gusting 13 5.1
2020-Oct-29 09:33 170 5 gusting 11 5.1
2020-Oct-29 09:23 160 5 gusting 9 5.1
2020-Oct-29 09:13 170 4 gusting 9 5.2
2020-Oct-29 09:03 160 6 gusting 9 5.1
2020-Oct-29 08:53 160 6 gusting 9 5.1
2020-Oct-29 08:43 160 6 gusting 11 5.1
2020-Oct-29 08:33 170 6 gusting 12 5.2
2020-Oct-29 08:23 160 6 gusting 12 5.1
2020-Oct-29 08:14 160 6 gusting 12 5.0
2020-Oct-29 08:03 170 6 gusting 11 4.9
2020-Oct-29 07:53 170 6 gusting 13 5.0
2020-Oct-29 07:43 160 6 gusting 13 5.0
2020-Oct-29 07:33 160 6 gusting 11 5.1
2020-Oct-29 07:23 150 6 gusting 9 5.1
2020-Oct-29 07:14 160 6 gusting 12 5.0
2020-Oct-29 07:03 160 5 gusting 11 5.1
2020-Oct-29 06:53 150 4 gusting 9 4.9
2020-Oct-29 06:43 120 2 gusting 6 4.3
2020-Oct-29 06:33 110 4 gusting 6 4.1
2020-Oct-29 06:23 110 2 gusting 5 4.0
2020-Oct-29 06:13 110 2 gusting 6 4.0
2020-Oct-29 06:03 110 2 gusting 6 4.2
2020-Oct-29 05:53 110 2 gusting 6 4.4
2020-Oct-29 05:43 100 4 gusting 7 4.8
2020-Oct-29 05:33 160 4 gusting 8 5.1
2020-Oct-29 05:23 150 2 gusting 7 4.9
2020-Oct-29 05:13 120 4 gusting 6 4.8
2020-Oct-29 05:03 140 1 gusting 6 4.8
2020-Oct-29 04:53 090 2 gusting 6 4.6
2020-Oct-29 04:43 110 2 gusting 5 4.7
2020-Oct-29 04:33 130 2 gusting 7 5.0
2020-Oct-29 04:23 120 2 gusting 5 5.0
2020-Oct-29 04:13 100 2 gusting 6 4.9
2020-Oct-29 04:03 100 2 gusting 6 4.7
2020-Oct-29 03:53 110 4 gusting 6 4.8
2020-Oct-29 03:43 120 4 gusting 6 4.8
2020-Oct-29 03:33 110 4 gusting 6 4.6
2020-Oct-29 03:23 100 4 gusting 6 4.7
2020-Oct-29 03:13 100 4 gusting 7 4.8
2020-Oct-29 03:03 110 4 gusting 6 4.8
2020-Oct-29 02:54 110 1 gusting 5 4.9
2020-Oct-29 02:43 110 1 gusting 4 4.8
2020-Oct-29 02:33 060 2 gusting 5 4.8
2020-Oct-29 02:23 090 1 gusting 5 4.9
2020-Oct-29 02:13 090 1 gusting 4 5.0
2020-Oct-29 02:03 060 1 gusting 2 5.0
2020-Oct-29 01:53 080 1 gusting 2 5.1
2020-Oct-29 01:43 110 1 gusting 4 5.3
2020-Oct-29 01:34 100 1 gusting 5 5.5
2020-Oct-29 01:23 130 1 gusting 5 5.6
2020-Oct-29 01:13 360 0 gusting 2 5.8
2020-Oct-29 01:03 140 1 gusting 4 5.8
2020-Oct-29 00:53 120 1 gusting 4 5.9
2020-Oct-29 00:43 090 1 gusting 2 5.9
2020-Oct-29 00:33 110 2 gusting 4 5.7
2020-Oct-29 00:23 060 0 gusting 2 5.8
2020-Oct-29 00:13 110 0 gusting 1 5.7
2020-Oct-28 23:53 100 1 gusting 5 5.7
2020-Oct-28 23:43 100 2 gusting 6 5.7
2020-Oct-28 23:33 090 4 gusting 6 5.8
2020-Oct-28 23:23 090 2 gusting 6 6.0
2020-Oct-28 23:13 100 2 gusting 5 6.0
2020-Oct-28 23:03 120 2 gusting 5 5.8
2020-Oct-28 22:53 130 4 gusting 6 5.8
2020-Oct-28 22:43 140 1 gusting 2 5.9
2020-Oct-28 22:33 160 1 gusting 6 5.6
2020-Oct-28 22:23 060 1 gusting 2 5.6
2020-Oct-28 22:13 110 1 gusting 4 5.5
2020-Oct-28 22:03 130 1 gusting 4 5.6
2020-Oct-28 21:53 090 1 gusting 4 5.5
2020-Oct-28 21:43 100 2 gusting 5 5.5
2020-Oct-28 21:33 150 2 gusting 6 5.7
2020-Oct-28 21:23 170 4 gusting 7 5.8
2020-Oct-28 21:13 180 1 gusting 5 5.8
2020-Oct-28 21:03 150 1 gusting 5 5.7
2020-Oct-28 20:53 5.5
2020-Oct-28 20:43 140 1 gusting 4 5.1
2020-Oct-28 20:33 080 1 gusting 5 4.9
2020-Oct-28 20:23 020 1 gusting 2 4.9
2020-Oct-28 20:13 080 2 gusting 6 4.7
2020-Oct-28 20:03 090 2 gusting 5 4.7
2020-Oct-28 19:53 110 2 gusting 5 4.7
2020-Oct-28 19:44 090 2 gusting 5 4.7
2020-Oct-28 19:33 090 2 gusting 5 4.7
2020-Oct-28 19:24 110 2 gusting 6 4.8
2020-Oct-28 19:13 100 2 gusting 6 4.7
2020-Oct-28 19:03 090 2 gusting 6 4.6
2020-Oct-28 18:53 090 4 gusting 6 4.6
2020-Oct-28 18:43 090 2 gusting 6 4.6
2020-Oct-28 18:33 110 4 gusting 6 4.4
2020-Oct-28 18:23 110 2 gusting 5 4.5
2020-Oct-28 18:13 060 0 gusting 4 4.6
2020-Oct-28 18:03 110 1 gusting 2 4.5
2020-Oct-28 17:43 080 2 gusting 5 4.4
2020-Oct-28 17:33 110 2 gusting 6 4.5
2020-Oct-28 17:23 120 2 gusting 6 4.6
2020-Oct-28 17:13 110 1 gusting 4 4.7
2020-Oct-28 17:04 4.8
2020-Oct-28 16:53 080 1 gusting 4 4.7
2020-Oct-28 16:43 110 1 gusting 5 4.8
2020-Oct-28 16:33 300 0 gusting 2 4.8
2020-Oct-28 16:23 120 0 gusting 4 4.7
2020-Oct-28 16:13 4.6
2020-Oct-28 16:03 100 1 gusting 5 4.6